AirNav   Everest Fuels
 
 908 users online  

0FD2 Dolphin Stadium Heliport
Miami, Florida, USA

GOING TO MIAMI?


FAA INFORMATION EFFECTIVE 30 JANUARY 2020

Location

FAA Identifier: 0FD2
Lat/Long: 25-57-35.3320N 080-14-13.1740W
25-57.588867N 080-14.219567W
25.9598144,-80.2369928
(estimated)
Elevation: 8 ft. / 2 m (estimated)
Variation: 03W (1985)
From city: 9 miles SW of MIAMI, FL
Time zone: UTC -5 (UTC -4 during Daylight Saving Time)
Zip code: 33056

Heliport Operations

Heliport use: Private use. Permission required prior to landing
Activation date: 01/1990
Control tower: no
ARTCC: MIAMI CENTER
FSS: MIAMI FLIGHT SERVICE STATION
Attendance: IREG IREG IREG
Wind indicator: yes
Segmented circle: no

Heliport Communications

WX ASOS at HWO (2.5 nm N): PHONE 954-983-5904
WX ASOS at OPF (4 nm SW): 125.9 (305-681-4063)
WX ASOS at FLL (8 nm NE): PHONE 954-359-7857
WX ASOS at MIA (10 nm S): PHONE 305-870-0235
WX ASOS at FXE (15 nm N): PHONE 954-772-2537
WX ASOS at PMP (19 nm N): PHONE 954-783-3720

Nearby radio navigation aids

VOR radial/distance  VOR name  Freq  Var
FLLr215/7.8FORT LAUDERDALE VOR/DME114.4006W
DHPr036/11.3DOLPHIN VORTAC113.9004W
VKZr344/13.2VIRGINIA KEY VOR/DME117.1004W

Heliport Services

Runway Information

Helipad H1

Dimensions: 48 x 48 ft. / 15 x 15 m
Surface: concrete
Latitude: 25-57.588867N
Longitude: 080-14.219567W
Elevation: 8.0 ft.
Traffic pattern: leftleft

Heliport Ownership and Management from official FAA records

Ownership: Privately-owned
Owner: WAYNE HUIZENGA
HUIZENGA HOLDINGS INC, 200 S ANDREWS AVE 5TH FLOOR
FT LAUDERDALE, FL 33301
Phone 954-627-5000
Manager: WILLIAM LOWRY
2269 NW 199TH ST
MIAMI, FL 33659
Phone 305-626-7320

Additional Remarks

FOR CD CTC MIAMI APCH AT 305-869-5432.

Instrument Procedures

There are no published instrument procedures at 0FD2.

Some nearby airports with instrument procedures:

KHWO - North Perry Airport (2 nm N)
KOPF - Miami-Opa Locka Executive Airport (4 nm SW)
KFLL - Fort Lauderdale/Hollywood International Airport (8 nm NE)
KMIA - Miami International Airport (10 nm S)
KFXE - Fort Lauderdale Executive Airport (15 nm N)
KPMP - Pompano Beach Airpark (19 nm N)
 
Loc | Ops | Rwys | IFR | FBO | Links
Com | Nav | Svcs | Stats | Notes


 
Area around 0FD2 (Dolphin Stadium Heliport)
 
Road maps at: MapQuest Bing Google
 
Aerial photo
No photo
 
Sectional chart

 
Airport distance calculator
Flying to Dolphin Stadium Heliport? Find the distance to fly.

From to 0FD2

Sunrise and sunset
Times for 16-Feb-2020
 Local
(UTC-5)
 Zulu
(UTC)
Morning civil twilight06:3311:33
Sunrise06:5711:57
Sunset18:1423:14
Evening civil twilight18:3723:37

Current date and time
Zulu (UTC)  17-Feb-2020 02:02:56
Local (UTC-5)  16-Feb-2020 21:02:56
 
METAR
KHWO 
2nm N 
170153Z AUTO 00000KT 10SM CLR 23/19 A3009 RMK AO2 SLP189 T02280189
KOPF 
4nm SW 
170153Z 00000KT 10SM CLR 22/19 A3008 RMK AO2 SLP188 T02220189
KFLL 
8nm NE 
170153Z 17004KT 10SM FEW026 SCT060 24/19 A3007 RMK AO2 SLP182 T02390189
KMIA 
11nm S 
170153Z 12003KT 10SM FEW040 SCT250 24/18 A3008 RMK AO2 SLP186 T02440183
KFXE 
15nm N 
170153Z 17004KT 10SM SCT060 23/19 A3007 RMK AO2 SLP185 T02330194
KPMP 
19nm N 
170153Z AUTO 19003KT 10SM OVC060 24/19 A3007 RMK AO2 SLP185 T02390194 $
TAF
KOPF 
4nm SW 
162123Z 1621/1718 15012KT P6SM FEW035 SCT050 FM170200 VRB04KT P6SM SCT030 BKN040 FM171500 13009KT P6SM SCT025 BKN050
KFLL 
8nm NE 
162123Z 1621/1724 15012KT P6SM SCT025 BKN060 FM170200 VRB04KT P6SM VCSH SCT030 BKN040 FM171600 14008KT P6SM SCT025 BKN050
KMIA 
11nm S 
162123Z 1621/1724 13012KT P6SM SCT025 SCT040 FM170200 VRB04KT P6SM SCT030 BKN040 FM171500 13009KT P6SM SCT025 BKN050
KFXE 
15nm N 
162123Z 1621/1718 13010KT P6SM FEW015 SCT025 BKN040 FM170200 VRB04KT P6SM VCSH SCT030 BKN040 FM171600 14008KT P6SM SCT025 BKN050
NOTAMs
Click for the latest NOTAMs
NOTAMs are issued by the DoD/FAA and will open in a separate window not controlled by AirNav.

 

 
 

Would you like to see your business listed on this page?

 If your business provides an interesting product or service to pilots, flight crews, aircraft, or users of the Dolphin Stadium Heliport, you should consider listing it here.  To start the listing process, click on the button below
 
Add a business
 

Other Pages about Dolphin Stadium Heliport

Update a link
 
Copyright © AirNav, LLC. All rights reserved. Privacy Policy  Contact